sensor_id;sensor_type;location;lat;lon;timestamp;pressure;altitude;pressure_sealevel;temperature;humidity
65384;BME280;51986;52.788;41.368;2024-03-29T00:01:06;99140.66;;;4.62;46.03
65384;BME280;51986;52.788;41.368;2024-03-29T00:03:32;99169.09;;;4.67;46.00
65384;BME280;51986;52.788;41.368;2024-03-29T00:05:57;99182.31;;;4.52;46.51
65384;BME280;51986;52.788;41.368;2024-03-29T00:08:23;99157.47;;;4.38;46.92
65384;BME280;51986;52.788;41.368;2024-03-29T00:10:49;99144.34;;;4.31;46.87
65384;BME280;51986;52.788;41.368;2024-03-29T00:13:15;99152.91;;;4.32;47.18
65384;BME280;51986;52.788;41.368;2024-03-29T00:15:41;99160.63;;;4.48;47.15
65384;BME280;51986;52.788;41.368;2024-03-29T00:18:07;99150.47;;;4.16;47.73
65384;BME280;51986;52.788;41.368;2024-03-29T00:20:33;99147.19;;;4.23;47.71
65384;BME280;51986;52.788;41.368;2024-03-29T00:22:58;99113.41;;;4.07;47.86
65384;BME280;51986;52.788;41.368;2024-03-29T00:25:24;99131.72;;;4.10;48.04
65384;BME280;51986;52.788;41.368;2024-03-29T00:27:50;99138.84;;;4.13;48.16
65384;BME280;51986;52.788;41.368;2024-03-29T00:30:16;99115.47;;;3.94;48.28
65384;BME280;51986;52.788;41.368;2024-03-29T00:32:42;99127.78;;;4.20;48.30
65384;BME280;51986;52.788;41.368;2024-03-29T00:35:08;99115.41;;;4.17;48.51
65384;BME280;51986;52.788;41.368;2024-03-29T00:37:34;99135.00;;;4.30;48.42
65384;BME280;51986;52.788;41.368;2024-03-29T00:40:00;99140.22;;;4.30;48.37
65384;BME280;51986;52.788;41.368;2024-03-29T00:42:26;99117.63;;;4.41;48.13
65384;BME280;51986;52.788;41.368;2024-03-29T00:44:51;99103.25;;;4.28;48.45
65384;BME280;51986;52.788;41.368;2024-03-29T00:47:17;99114.56;;;4.36;48.41
65384;BME280;51986;52.788;41.368;2024-03-29T00:49:43;99133.75;;;4.47;48.85
65384;BME280;51986;52.788;41.368;2024-03-29T00:52:09;99118.19;;;4.54;48.24
65384;BME280;51986;52.788;41.368;2024-03-29T00:54:35;99114.44;;;4.55;48.17
65384;BME280;51986;52.788;41.368;2024-03-29T00:57:01;99069.81;;;4.37;48.49
65384;BME280;51986;52.788;41.368;2024-03-29T00:59:26;99120.22;;;4.72;47.93
65384;BME280;51986;52.788;41.368;2024-03-29T01:01:52;99118.19;;;4.54;48.55
65384;BME280;51986;52.788;41.368;2024-03-29T01:04:18;99098.47;;;4.60;48.16
65384;BME280;51986;52.788;41.368;2024-03-29T01:06:44;99098.78;;;4.55;48.64
65384;BME280;51986;52.788;41.368;2024-03-29T01:09:10;99098.19;;;4.69;48.43
65384;BME280;51986;52.788;41.368;2024-03-29T01:11:36;99091.69;;;4.56;48.56
65384;BME280;51986;52.788;41.368;2024-03-29T01:14:02;99080.81;;;4.50;48.22
65384;BME280;51986;52.788;41.368;2024-03-29T01:16:28;99090.75;;;4.71;48.36
65384;BME280;51986;52.788;41.368;2024-03-29T01:18:54;99080.81;;;4.50;48.59
65384;BME280;51986;52.788;41.368;2024-03-29T01:21:19;99068.34;;;4.70;47.52
65384;BME280;51986;52.788;41.368;2024-03-29T01:23:45;99033.44;;;4.52;48.61
65384;BME280;51986;52.788;41.368;2024-03-29T01:26:11;99059.13;;;4.46;48.99
65384;BME280;51986;52.788;41.368;2024-03-29T01:28:37;99058.47;;;4.56;48.69
65384;BME280;51986;52.788;41.368;2024-03-29T01:31:03;99046.84;;;4.50;48.70
65384;BME280;51986;52.788;41.368;2024-03-29T01:33:30;99016.38;;;4.31;48.72
65384;BME280;51986;52.788;41.368;2024-03-29T01:35:56;99033.94;;;4.64;48.60
65384;BME280;51986;52.788;41.368;2024-03-29T01:38:22;99036.28;;;4.73;48.27
65384;BME280;51986;52.788;41.368;2024-03-29T01:40:47;99054.28;;;4.82;47.79
65384;BME280;51986;52.788;41.368;2024-03-29T01:43:17;99040.72;;;4.73;47.87
65384;BME280;51986;52.788;41.368;2024-03-29T01:45:48;99038.44;;;4.64;48.06
65384;BME280;51986;52.788;41.368;2024-03-29T01:48:14;99017.59;;;4.71;48.13
65384;BME280;51986;52.788;41.368;2024-03-29T01:50:41;99018.38;;;4.75;48.05
65384;BME280;51986;52.788;41.368;2024-03-29T01:53:08;99001.25;;;4.81;47.91
65384;BME280;51986;52.788;41.368;2024-03-29T01:55:35;99017.63;;;4.75;47.58
65384;BME280;51986;52.788;41.368;2024-03-29T01:58:01;99049.94;;;4.97;47.13
65384;BME280;51986;52.788;41.368;2024-03-29T02:00:27;99011.75;;;4.85;47.54
65384;BME280;51986;52.788;41.368;2024-03-29T02:02:59;99028.22;;;4.89;47.92
65384;BME280;51986;52.788;41.368;2024-03-29T02:05:25;99013.56;;;4.81;47.95
65384;BME280;51986;52.788;41.368;2024-03-29T02:07:52;98993.75;;;4.76;48.18
65384;BME280;51986;52.788;41.368;2024-03-29T02:10:20;99010.31;;;4.91;47.75
65384;BME280;51986;52.788;41.368;2024-03-29T02:12:45;98985.97;;;4.83;47.70
65384;BME280;51986;52.788;41.368;2024-03-29T02:15:15;98967.22;;;4.74;47.57
65384;BME280;51986;52.788;41.368;2024-03-29T02:17:41;98983.00;;;4.85;48.06
65384;BME280;51986;52.788;41.368;2024-03-29T02:20:07;98967.06;;;4.97;47.54
65384;BME280;51986;52.788;41.368;2024-03-29T02:22:36;98974.41;;;4.84;47.94
65384;BME280;51986;52.788;41.368;2024-03-29T02:25:06;98955.03;;;4.89;47.38
65384;BME280;51986;52.788;41.368;2024-03-29T02:27:32;98943.00;;;4.81;47.29
65384;BME280;51986;52.788;41.368;2024-03-29T02:29:58;98945.28;;;4.86;47.72
65384;BME280;51986;52.788;41.368;2024-03-29T02:32:24;98954.34;;;4.96;47.25
65384;BME280;51986;52.788;41.368;2024-03-29T02:34:53;98942.66;;;4.82;46.77
65384;BME280;51986;52.788;41.368;2024-03-29T02:37:19;98928.72;;;4.67;47.40
65384;BME280;51986;52.788;41.368;2024-03-29T02:39:44;98939.16;;;4.67;47.32
65384;BME280;51986;52.788;41.368;2024-03-29T02:42:10;98944.91;;;4.84;47.37
65384;BME280;51986;52.788;41.368;2024-03-29T02:44:36;98947.88;;;4.82;47.74
65384;BME280;51986;52.788;41.368;2024-03-29T02:47:02;98930.31;;;4.79;47.09
65384;BME280;51986;52.788;41.368;2024-03-29T02:49:28;98922.84;;;4.78;47.18
65384;BME280;51986;52.788;41.368;2024-03-29T02:51:55;98931.56;;;4.92;46.72
65384;BME280;51986;52.788;41.368;2024-03-29T02:54:22;98931.47;;;4.85;47.22
65384;BME280;51986;52.788;41.368;2024-03-29T02:56:48;98948.28;;;4.84;47.66
65384;BME280;51986;52.788;41.368;2024-03-29T02:59:14;98922.94;;;4.88;46.94
65384;BME280;51986;52.788;41.368;2024-03-29T03:01:40;98927.31;;;4.77;47.69
65384;BME280;51986;52.788;41.368;2024-03-29T03:04:06;98952.75;;;4.84;47.19
65384;BME280;51986;52.788;41.368;2024-03-29T03:06:32;98937.06;;;4.84;47.15
65384;BME280;51986;52.788;41.368;2024-03-29T03:08:58;98923.72;;;4.92;46.84
65384;BME280;51986;52.788;41.368;2024-03-29T03:11:24;98908.28;;;4.80;46.82
65384;BME280;51986;52.788;41.368;2024-03-29T03:13:49;98924.59;;;5.14;46.33
65384;BME280;51986;52.788;41.368;2024-03-29T03:16:15;98933.13;;;5.04;47.05
65384;BME280;51986;52.788;41.368;2024-03-29T03:18:41;98932.44;;;5.14;46.86
65384;BME280;51986;52.788;41.368;2024-03-29T03:21:07;98908.59;;;5.23;46.08
65384;BME280;51986;52.788;41.368;2024-03-29T03:23:33;98906.91;;;5.52;45.40
65384;BME280;51986;52.788;41.368;2024-03-29T03:26:01;98927.50;;;5.61;45.97
65384;BME280;51986;52.788;41.368;2024-03-29T03:28:27;98924.88;;;5.61;45.72
65384;BME280;51986;52.788;41.368;2024-03-29T03:30:53;98913.72;;;5.71;45.35
65384;BME280;51986;52.788;41.368;2024-03-29T03:33:20;98934.97;;;5.62;45.49
65384;BME280;51986;52.788;41.368;2024-03-29T03:35:46;98912.16;;;5.56;45.88
65384;BME280;51986;52.788;41.368;2024-03-29T03:38:13;98924.41;;;5.41;46.18
65384;BME280;51986;52.788;41.368;2024-03-29T03:40:39;98925.84;;;5.35;46.68
65384;BME280;51986;52.788;41.368;2024-03-29T03:43:08;98910.16;;;5.31;47.20
65384;BME280;51986;52.788;41.368;2024-03-29T03:45:38;98918.09;;;5.46;46.60
65384;BME280;51986;52.788;41.368;2024-03-29T03:48:09;98919.53;;;5.39;46.91
65384;BME280;51986;52.788;41.368;2024-03-29T03:50:35;98923.22;;;5.31;47.13
65384;BME280;51986;52.788;41.368;2024-03-29T03:53:01;98895.22;;;5.35;47.38
65384;BME280;51986;52.788;41.368;2024-03-29T03:55:27;98908.72;;;5.41;47.10
65384;BME280;51986;52.788;41.368;2024-03-29T03:57:53;98889.31;;;5.49;47.11
65384;BME280;51986;52.788;41.368;2024-03-29T04:00:20;98880.72;;;5.49;46.96
65384;BME280;51986;52.788;41.368;2024-03-29T04:02:49;98927.28;;;5.25;47.52
65384;BME280;51986;52.788;41.368;2024-03-29T04:05:17;98932.47;;;5.84;46.35
65384;BME280;51986;52.788;41.368;2024-03-29T04:07:43;98899.28;;;6.16;45.34
65384;BME280;51986;52.788;41.368;2024-03-29T04:10:10;98896.63;;;6.06;46.20
65384;BME280;51986;52.788;41.368;2024-03-29T04:12:36;98926.53;;;5.98;45.59
65384;BME280;51986;52.788;41.368;2024-03-29T04:15:02;98900.25;;;5.69;46.54
65384;BME280;51986;52.788;41.368;2024-03-29T04:17:27;98898.38;;;5.73;46.72
65384;BME280;51986;52.788;41.368;2024-03-29T04:19:53;98917.81;;;5.72;46.56
65384;BME280;51986;52.788;41.368;2024-03-29T04:22:19;98926.44;;;5.69;46.72
65384;BME280;51986;52.788;41.368;2024-03-29T04:24:45;98892.34;;;5.58;46.70
65384;BME280;51986;52.788;41.368;2024-03-29T04:27:11;98908.31;;;5.35;47.39
65384;BME280;51986;52.788;41.368;2024-03-29T04:29:37;98891.25;;;5.66;46.86
65384;BME280;51986;52.788;41.368;2024-03-29T04:32:03;98889.81;;;5.80;47.39
65384;BME280;51986;52.788;41.368;2024-03-29T04:34:29;98890.50;;;5.62;46.79
65384;BME280;51986;52.788;41.368;2024-03-29T04:36:54;98889.69;;;5.51;47.22
65384;BME280;51986;52.788;41.368;2024-03-29T04:39:20;98874.09;;;5.76;47.08
65384;BME280;51986;52.788;41.368;2024-03-29T04:41:46;98873.34;;;5.76;47.08
65384;BME280;51986;52.788;41.368;2024-03-29T04:44:13;98874.81;;;5.73;47.53
65384;BME280;51986;52.788;41.368;2024-03-29T04:46:39;98879.78;;;5.96;47.18
65384;BME280;51986;52.788;41.368;2024-03-29T04:49:05;98894.28;;;5.72;47.38
65384;BME280;51986;52.788;41.368;2024-03-29T04:51:31;98892.09;;;5.88;46.92
65384;BME280;51986;52.788;41.368;2024-03-29T04:53:56;98917.94;;;6.04;47.05
65384;BME280;51986;52.788;41.368;2024-03-29T04:56:22;98876.75;;;5.83;46.96
65384;BME280;51986;52.788;41.368;2024-03-29T04:58:48;98878.69;;;6.11;46.46
65384;BME280;51986;52.788;41.368;2024-03-29T05:01:14;98896.59;;;5.91;46.95
65384;BME280;51986;52.788;41.368;2024-03-29T05:03:40;98874.13;;;5.83;47.22
65384;BME280;51986;52.788;41.368;2024-03-29T05:06:06;98885.38;;;5.94;46.86
65384;BME280;51986;52.788;41.368;2024-03-29T05:08:32;98872.69;;;6.11;46.84
65384;BME280;51986;52.788;41.368;2024-03-29T05:10:57;98871.22;;;6.10;46.72
65384;BME280;51986;52.788;41.368;2024-03-29T05:13:23;98891.41;;;6.16;46.37
65384;BME280;51986;52.788;41.368;2024-03-29T05:15:49;98879.81;;;6.14;46.90
65384;BME280;51986;52.788;41.368;2024-03-29T05:18:15;98865.25;;;6.13;46.45
65384;BME280;51986;52.788;41.368;2024-03-29T05:20:41;98854.78;;;6.34;46.47
65384;BME280;51986;52.788;41.368;2024-03-29T05:23:07;98848.41;;;6.35;46.47
65384;BME280;51986;52.788;41.368;2024-03-29T05:25:33;98875.03;;;6.55;46.13
65384;BME280;51986;52.788;41.368;2024-03-29T05:27:59;98846.53;;;6.39;46.70
65384;BME280;51986;52.788;41.368;2024-03-29T05:30:25;98866.75;;;6.64;45.74
65384;BME280;51986;52.788;41.368;2024-03-29T05:32:51;98856.28;;;6.82;45.86
65384;BME280;51986;52.788;41.368;2024-03-29T05:35:16;98871.25;;;6.81;45.57
65384;BME280;51986;52.788;41.368;2024-03-29T05:37:43;98852.56;;;6.86;45.63
65384;BME280;51986;52.788;41.368;2024-03-29T05:40:09;98827.44;;;6.82;46.02
65384;BME280;51986;52.788;41.368;2024-03-29T05:42:35;98854.06;;;6.66;45.33
65384;BME280;51986;52.788;41.368;2024-03-29T05:45:01;98836.81;;;6.79;45.35
65384;BME280;51986;52.788;41.368;2024-03-29T05:47:27;98843.53;;;7.02;45.35
65384;BME280;51986;52.788;41.368;2024-03-29T05:49:54;98857.00;;;7.11;44.68
65384;BME280;51986;52.788;41.368;2024-03-29T05:52:20;98846.91;;;7.09;44.97
65384;BME280;51986;52.788;41.368;2024-03-29T05:54:46;98828.56;;;7.06;44.84
65384;BME280;51986;52.788;41.368;2024-03-29T05:57:12;98833.00;;;7.19;45.88
65384;BME280;51986;52.788;41.368;2024-03-29T05:59:38;98830.78;;;7.18;45.06
65384;BME280;51986;52.788;41.368;2024-03-29T06:02:05;98839.69;;;7.38;45.20
65384;BME280;51986;52.788;41.368;2024-03-29T06:04:31;98820.19;;;7.43;44.84
65384;BME280;51986;52.788;41.368;2024-03-29T06:06:57;98820.16;;;7.50;44.44
65384;BME280;51986;52.788;41.368;2024-03-29T06:09:22;98814.94;;;7.43;44.71
65384;BME280;51986;52.788;41.368;2024-03-29T06:11:48;98836.28;;;7.48;44.58
65384;BME280;51986;52.788;41.368;2024-03-29T06:14:14;98826.19;;;7.40;45.36
65384;BME280;51986;52.788;41.368;2024-03-29T06:16:40;98810.84;;;7.42;45.55
65384;BME280;51986;52.788;41.368;2024-03-29T06:19:06;98821.34;;;7.38;45.71
65384;BME280;51986;52.788;41.368;2024-03-29T06:21:32;98822.81;;;7.39;45.30
65384;BME280;51986;52.788;41.368;2024-03-29T06:23:58;98827.47;;;7.87;45.08
65384;BME280;51986;52.788;41.368;2024-03-29T06:26:24;98824.44;;;7.96;44.81
65384;BME280;51986;52.788;41.368;2024-03-29T06:28:50;98827.44;;;7.94;44.51
65384;BME280;51986;52.788;41.368;2024-03-29T06:31:15;98835.66;;;8.00;44.65
65384;BME280;51986;52.788;41.368;2024-03-29T06:33:41;98823.59;;;8.10;45.07
65384;BME280;51986;52.788;41.368;2024-03-29T06:36:07;98819.84;;;8.07;45.13
65384;BME280;51986;52.788;41.368;2024-03-29T06:38:33;98791.50;;;7.84;45.17
65384;BME280;51986;52.788;41.368;2024-03-29T06:40:59;98822.94;;;7.95;44.71
65384;BME280;51986;52.788;41.368;2024-03-29T06:43:24;98818.34;;;8.06;44.96
65384;BME280;51986;52.788;41.368;2024-03-29T06:45:50;98808.75;;;7.85;45.06
65384;BME280;51986;52.788;41.368;2024-03-29T06:48:16;98802.00;;;7.81;45.91
65384;BME280;51986;52.788;41.368;2024-03-29T06:50:42;98811.00;;;7.83;45.91
65384;BME280;51986;52.788;41.368;2024-03-29T06:53:08;98803.53;;;7.78;45.79
65384;BME280;51986;52.788;41.368;2024-03-29T06:55:35;98808.75;;;7.82;45.32
65384;BME280;51986;52.788;41.368;2024-03-29T06:58:01;98814.00;;;7.82;45.67
65384;BME280;51986;52.788;41.368;2024-03-29T07:00:26;98799.91;;;7.50;46.45
65384;BME280;51986;52.788;41.368;2024-03-29T07:02:52;98829.78;;;7.74;46.03
65384;BME280;51986;52.788;41.368;2024-03-29T07:05:18;98813.94;;;7.92;45.72
65384;BME280;51986;52.788;41.368;2024-03-29T07:07:44;98817.75;;;7.84;45.43
65384;BME280;51986;52.788;41.368;2024-03-29T07:10:10;98803.84;;;7.84;46.35
65384;BME280;51986;52.788;41.368;2024-03-29T07:12:36;98804.00;;;7.59;47.02
65384;BME280;51986;52.788;41.368;2024-03-29T07:15:02;98781.13;;;7.59;46.66
65384;BME280;51986;52.788;41.368;2024-03-29T07:17:27;98798.38;;;7.60;46.63
65384;BME280;51986;52.788;41.368;2024-03-29T07:19:53;98790.72;;;7.84;45.95
65384;BME280;51986;52.788;41.368;2024-03-29T07:22:19;98802.16;;;7.52;46.66
65384;BME280;51986;52.788;41.368;2024-03-29T07:24:45;98803.91;;;7.80;46.59
65384;BME280;51986;52.788;41.368;2024-03-29T07:27:11;98788.16;;;7.80;46.30
65384;BME280;51986;52.788;41.368;2024-03-29T07:29:37;98816.13;;;8.01;46.35
65384;BME280;51986;52.788;41.368;2024-03-29T07:32:03;98781.91;;;8.12;45.71
65384;BME280;51986;52.788;41.368;2024-03-29T07:34:29;98820.16;;;8.16;46.14
65384;BME280;51986;52.788;41.368;2024-03-29T07:36:55;98793.97;;;8.06;46.48
65384;BME280;51986;52.788;41.368;2024-03-29T07:39:21;98805.44;;;8.26;45.53
65384;BME280;51986;52.788;41.368;2024-03-29T07:41:46;98802.91;;;8.19;46.31
65384;BME280;51986;52.788;41.368;2024-03-29T07:44:12;98806.03;;;8.51;45.45
65384;BME280;51986;52.788;41.368;2024-03-29T07:46:38;98785.34;;;8.50;45.62
65384;BME280;51986;52.788;41.368;2024-03-29T07:49:04;98801.09;;;8.53;45.46
65384;BME280;51986;52.788;41.368;2024-03-29T07:51:30;98795.56;;;8.44;45.71
65384;BME280;51986;52.788;41.368;2024-03-29T07:53:56;98798.28;;;8.30;46.21
65384;BME280;51986;52.788;41.368;2024-03-29T07:56:22;98803.19;;;8.28;46.37
65384;BME280;51986;52.788;41.368;2024-03-29T07:58:52;98801.03;;;8.12;46.57
65384;BME280;51986;52.788;41.368;2024-03-29T08:01:19;98820.59;;;8.08;47.26
65384;BME280;51986;52.788;41.368;2024-03-29T08:03:45;98806.38;;;8.01;47.76
65384;BME280;51986;52.788;41.368;2024-03-29T08:06:11;98802.66;;;7.99;47.46
65384;BME280;51986;52.788;41.368;2024-03-29T08:08:37;98812.34;;;8.06;48.12
65384;BME280;51986;52.788;41.368;2024-03-29T08:11:03;98825.50;;;8.06;48.15
65384;BME280;51986;52.788;41.368;2024-03-29T08:13:29;98797.38;;;8.02;48.57
65384;BME280;51986;52.788;41.368;2024-03-29T08:16:01;98798.56;;;7.94;49.13
65384;BME280;51986;52.788;41.368;2024-03-29T08:18:28;98824.09;;;7.90;50.10
65384;BME280;51986;52.788;41.368;2024-03-29T08:20:54;98802.75;;;7.85;49.29
65384;BME280;51986;52.788;41.368;2024-03-29T08:23:24;98825.53;;;7.98;50.04
65384;BME280;51986;52.788;41.368;2024-03-29T08:25:50;98813.59;;;7.90;50.21
65384;BME280;51986;52.788;41.368;2024-03-29T08:28:16;98807.97;;;7.88;50.22
65384;BME280;51986;52.788;41.368;2024-03-29T08:30:41;98806.06;;;7.89;50.41
65384;BME280;51986;52.788;41.368;2024-03-29T08:33:07;98777.63;;;7.80;51.05
65384;BME280;51986;52.788;41.368;2024-03-29T08:35:33;98797.50;;;7.81;51.65
65384;BME280;51986;52.788;41.368;2024-03-29T08:38:00;98786.75;;;7.61;53.22
65384;BME280;51986;52.788;41.368;2024-03-29T08:40:29;98798.38;;;7.60;54.04
65384;BME280;51986;52.788;41.368;2024-03-29T08:42:58;98780.09;;;7.39;54.69
65384;BME280;51986;52.788;41.368;2024-03-29T08:45:24;98790.25;;;7.33;55.83
65384;BME280;51986;52.788;41.368;2024-03-29T08:47:50;98778.22;;;7.43;56.12
65384;BME280;51986;52.788;41.368;2024-03-29T08:50:16;98780.50;;;7.37;56.56
65384;BME280;51986;52.788;41.368;2024-03-29T08:52:42;98774.91;;;7.28;57.20
65384;BME280;51986;52.788;41.368;2024-03-29T08:55:08;98775.25;;;7.27;58.55
65384;BME280;51986;52.788;41.368;2024-03-29T08:57:35;98769.25;;;7.37;58.26
65384;BME280;51986;52.788;41.368;2024-03-29T09:00:01;98741.47;;;7.43;58.15
65384;BME280;51986;52.788;41.368;2024-03-29T09:02:27;98777.81;;;7.41;59.01
65384;BME280;51986;52.788;41.368;2024-03-29T09:04:53;98753.31;;;7.69;58.33
65384;BME280;51986;52.788;41.368;2024-03-29T09:07:19;98730.22;;;7.42;59.32
65384;BME280;51986;52.788;41.368;2024-03-29T09:09:45;98744.28;;;7.77;58.67
65384;BME280;51986;52.788;41.368;2024-03-29T09:12:11;98754.47;;;7.64;57.87
65384;BME280;51986;52.788;41.368;2024-03-29T09:14:36;98775.09;;;7.66;58.68
65384;BME280;51986;52.788;41.368;2024-03-29T09:17:02;98748.84;;;7.66;58.56
65384;BME280;51986;52.788;41.368;2024-03-29T09:19:29;98736.13;;;7.61;59.16
65384;BME280;51986;52.788;41.368;2024-03-29T09:21:55;98750.72;;;7.65;59.42
65384;BME280;51986;52.788;41.368;2024-03-29T09:24:20;98722.69;;;7.52;59.66
65384;BME280;51986;52.788;41.368;2024-03-29T09:26:48;98748.94;;;7.44;60.54
65384;BME280;51986;52.788;41.368;2024-03-29T09:29:14;98719.03;;;7.31;60.86
65384;BME280;51986;52.788;41.368;2024-03-29T09:31:40;98711.16;;;7.35;60.94
65384;BME280;51986;52.788;41.368;2024-03-29T09:34:06;98723.63;;;7.09;61.54
65384;BME280;51986;52.788;41.368;2024-03-29T09:36:32;98702.31;;;7.04;62.26
65384;BME280;51986;52.788;41.368;2024-03-29T09:38:58;98727.00;;;7.10;62.32
65384;BME280;51986;52.788;41.368;2024-03-29T09:41:25;98715.38;;;7.11;62.84
65384;BME280;51986;52.788;41.368;2024-03-29T09:43:52;98697.81;;;7.01;63.02
65384;BME280;51986;52.788;41.368;2024-03-29T09:46:19;98689.25;;;6.82;63.62
65384;BME280;51986;52.788;41.368;2024-03-29T09:48:45;98694.47;;;7.00;63.14
65384;BME280;51986;52.788;41.368;2024-03-29T09:51:12;98692.22;;;6.98;62.79
65384;BME280;51986;52.788;41.368;2024-03-29T09:53:38;98699.72;;;6.93;63.35
65384;BME280;51986;52.788;41.368;2024-03-29T09:56:05;98677.97;;;7.03;63.71
65384;BME280;51986;52.788;41.368;2024-03-29T09:58:35;98700.44;;;6.97;63.71
65384;BME280;51986;52.788;41.368;2024-03-29T10:01:03;98698.63;;;6.90;64.02
65384;BME280;51986;52.788;41.368;2024-03-29T10:03:30;98698.97;;;6.96;64.23
65384;BME280;51986;52.788;41.368;2024-03-29T10:05:57;98687.00;;;6.95;64.67
65384;BME280;51986;52.788;41.368;2024-03-29T10:08:23;98702.72;;;6.88;64.99
65384;BME280;51986;52.788;41.368;2024-03-29T10:10:49;98697.44;;;7.06;64.22
65384;BME280;51986;52.788;41.368;2024-03-29T10:13:15;98727.75;;;7.07;64.57
65384;BME280;51986;52.788;41.368;2024-03-29T10:15:41;98710.19;;;7.04;64.86
65384;BME280;51986;52.788;41.368;2024-03-29T10:18:09;98698.56;;;7.05;64.72
65384;BME280;51986;52.788;41.368;2024-03-29T10:20:35;98705.16;;;7.31;64.20
65384;BME280;51986;52.788;41.368;2024-03-29T10:23:01;98710.19;;;7.04;65.51
65384;BME280;51986;52.788;41.368;2024-03-29T10:25:31;98713.16;;;7.06;65.55
65384;BME280;51986;52.788;41.368;2024-03-29T10:27:57;98698.94;;;7.03;65.71
65384;BME280;51986;52.788;41.368;2024-03-29T10:30:25;98713.09;;;7.23;65.19
65384;BME280;51986;52.788;41.368;2024-03-29T10:32:51;98723.50;;;7.38;64.60
65384;BME280;51986;52.788;41.368;2024-03-29T10:35:17;98740.28;;;7.55;64.29
65384;BME280;51986;52.788;41.368;2024-03-29T10:37:43;98708.84;;;7.47;64.26
65384;BME280;51986;52.788;41.368;2024-03-29T10:40:09;98701.44;;;7.84;63.91
65384;BME280;51986;52.788;41.368;2024-03-29T10:42:39;98697.06;;;7.70;64.13
65384;BME280;51986;52.788;41.368;2024-03-29T10:45:07;98692.72;;;7.97;63.49
65384;BME280;51986;52.788;41.368;2024-03-29T10:47:34;98706.97;;;8.00;63.59
65384;BME280;51986;52.788;41.368;2024-03-29T10:50:00;98716.28;;;8.08;62.49
65384;BME280;51986;52.788;41.368;2024-03-29T10:52:27;98690.63;;;8.23;63.23
65384;BME280;51986;52.788;41.368;2024-03-29T10:54:53;98682.09;;;8.49;62.08
65384;BME280;51986;52.788;41.368;2024-03-29T10:57:22;98690.41;;;8.44;62.14
65384;BME280;51986;52.788;41.368;2024-03-29T11:00:04;98681.47;;;8.38;62.68
65384;BME280;51986;52.788;41.368;2024-03-29T11:05:09;98731.41;;;8.38;62.59
65384;BME280;51986;52.788;41.368;2024-03-29T11:07:39;98706.31;;;8.30;62.59
65384;BME280;51986;52.788;41.368;2024-03-29T11:10:05;98704.47;;;8.27;62.72
65384;BME280;51986;52.788;41.368;2024-03-29T11:12:41;98700.81;;;8.17;63.36
65384;BME280;51986;52.788;41.368;2024-03-29T11:15:16;98715.47;;;8.15;63.09
65384;BME280;51986;52.788;41.368;2024-03-29T11:17:45;98702.22;;;8.29;63.20
65384;BME280;51986;52.788;41.368;2024-03-29T11:20:11;98704.69;;;8.47;62.63
65384;BME280;51986;52.788;41.368;2024-03-29T11:22:37;98690.22;;;8.28;62.95
65384;BME280;51986;52.788;41.368;2024-03-29T11:25:04;98667.34;;;8.25;63.20
65384;BME280;51986;52.788;41.368;2024-03-29T11:27:29;98690.31;;;8.55;62.63
65384;BME280;51986;52.788;41.368;2024-03-29T11:29:55;98686.50;;;8.60;62.36
65384;BME280;51986;52.788;41.368;2024-03-29T11:32:37;98668.47;;;8.62;62.41
65384;BME280;51986;52.788;41.368;2024-03-29T11:35:05;98694.56;;;8.80;61.75
65384;BME280;51986;52.788;41.368;2024-03-29T11:37:31;98670.44;;;8.88;61.77
65384;BME280;51986;52.788;41.368;2024-03-29T11:40:00;98673.75;;;8.92;61.66
65384;BME280;51986;52.788;41.368;2024-03-29T11:42:46;98671.09;;;8.96;62.36
65384;BME280;51986;52.788;41.368;2024-03-29T11:45:13;98660.25;;;9.21;61.02
65384;BME280;51986;52.788;41.368;2024-03-29T11:47:42;98657.19;;;9.22;61.07
65384;BME280;51986;52.788;41.368;2024-03-29T11:50:09;98663.28;;;9.19;61.04
65384;BME280;51986;52.788;41.368;2024-03-29T11:52:37;98661.88;;;9.11;61.07
65384;BME280;51986;52.788;41.368;2024-03-29T11:55:04;98659.94;;;9.15;60.59
65384;BME280;51986;52.788;41.368;2024-03-29T11:57:30;98639.22;;;9.17;60.93
65384;BME280;51986;52.788;41.368;2024-03-29T11:59:56;98643.25;;;9.25;60.33
65384;BME280;51986;52.788;41.368;2024-03-29T12:02:21;98650.38;;;9.28;61.16
65384;BME280;51986;52.788;41.368;2024-03-29T12:04:48;98635.94;;;9.37;60.37
65384;BME280;51986;52.788;41.368;2024-03-29T12:07:14;98640.00;;;9.41;60.32
65384;BME280;51986;52.788;41.368;2024-03-29T12:09:42;98648.13;;;9.27;60.86
65384;BME280;51986;52.788;41.368;2024-03-29T12:12:08;98658.59;;;9.31;60.92
65384;BME280;51986;52.788;41.368;2024-03-29T12:14:34;98642.91;;;9.23;60.88
65384;BME280;51986;52.788;41.368;2024-03-29T12:17:00;98642.41;;;9.05;61.81
65384;BME280;51986;52.788;41.368;2024-03-29T12:19:26;98642.84;;;9.27;60.89
65384;BME280;51986;52.788;41.368;2024-03-29T12:21:52;98642.13;;;9.26;60.85
65384;BME280;51986;52.788;41.368;2024-03-29T12:24:18;98647.34;;;9.30;60.69
65384;BME280;51986;52.788;41.368;2024-03-29T12:26:44;98643.06;;;9.13;61.38
65384;BME280;51986;52.788;41.368;2024-03-29T12:29:10;98649.19;;;9.33;60.89
65384;BME280;51986;52.788;41.368;2024-03-29T12:31:36;98642.28;;;9.43;60.57
65384;BME280;51986;52.788;41.368;2024-03-29T12:34:02;98661.06;;;9.41;61.33
65384;BME280;51986;52.788;41.368;2024-03-29T12:36:28;98629.97;;;9.33;61.44
65384;BME280;51986;52.788;41.368;2024-03-29T12:38:55;98601.94;;;9.22;61.71
65384;BME280;51986;52.788;41.368;2024-03-29T12:41:20;98627.91;;;9.20;61.35
65384;BME280;51986;52.788;41.368;2024-03-29T12:43:46;98628.13;;;9.33;61.12
65384;BME280;51986;52.788;41.368;2024-03-29T12:46:12;98625.44;;;9.10;61.99
65384;BME280;51986;52.788;41.368;2024-03-29T12:48:38;98639.28;;;9.14;61.99
65384;BME280;51986;52.788;41.368;2024-03-29T12:51:06;98623.00;;;8.95;62.99
65384;BME280;51986;52.788;41.368;2024-03-29T12:53:32;98629.50;;;8.87;63.62
65384;BME280;51986;52.788;41.368;2024-03-29T12:55:58;98594.31;;;9.05;62.99
65384;BME280;51986;52.788;41.368;2024-03-29T12:58:24;98608.47;;;9.14;62.71